ADDS METAR Data INFO
IDs: Format: Raw Decoded Include TAF

Data at: 1950 UTC 14 Aug 2018

KAJR 141935Z AUTO 29007KT 7SM BKN049 BKN065 30/22 A3005 RMK AO2 T02950219
KAJR 141915Z AUTO 29004KT 10SM SCT055 29/21 A3006 RMK AO2 T02890211
KAJR 141855Z AUTO 30004KT 10SM SCT049 SCT060 SCT070 29/21 A3006 RMK AO2 T02870213
KAJR 141835Z AUTO 00000KT 10SM SCT049 SCT060 SCT070 29/22 A3007 RMK AO2 T02860215
KAJR 141815Z AUTO 30003KT 7SM SCT050 SCT070 28/22 A3008 RMK AO2 T02820216
KAJR 141755Z AUTO 32003KT 10SM SCT050 BKN070 28/22 A3008 RMK AO2 T02810218 10285 20180
KAJR 141735Z AUTO 01004KT 7SM SCT047 SCT055 BKN070 28/22 A3009 RMK AO2 T02770217
KAJR 141715Z AUTO 27004KT 10SM SCT047 SCT065 28/21 A3009 RMK AO2 T02820211
KAJR 141655Z AUTO 35006KT 10SM CLR 28/22 A3009 RMK AO2 T02840215
KAJR 141635Z AUTO 29003KT 10SM CLR 28/22 A3010 RMK AO2 T02830218
KAJR 141615Z AUTO 36004KT 10SM CLR 28/22 A3010 RMK AO2 T02770218
KAJR 141555Z AUTO 30004KT 7SM CLR 27/22 A3010 RMK AO2 T02700222
KAJR 141535Z AUTO 00000KT 10SM CLR 27/22 A3010 RMK AO2 T02650224
KAJR 141515Z AUTO 29003KT 7SM CLR 26/22 A3011 RMK AO2 T02590220
KAJR 141455Z AUTO 00000KT 7SM CLR 25/22 A3010 RMK AO2 T02540222
KAJR 141435Z AUTO 33004KT 10SM CLR 25/22 A3010 RMK AO2 T02500220
KAJR 141415Z AUTO 34004KT 10SM CLR 24/22 A3010 RMK AO2 T02430224
KAJR 141355Z AUTO 00000KT 7SM CLR 23/22 A3010 RMK AO2 T02310218
KAJR 141335Z AUTO 35003KT 7SM CLR 22/22 A3010 RMK AO2 T02210215
KAJR 141315Z AUTO 00000KT 5SM BR CLR 21/21 A3010 RMK AO2 T02080207
KAJR 141255Z AUTO 00000KT 7SM CLR 20/20 A3009 RMK AO2 T02040204
KAJR 141235Z AUTO 00000KT 7SM CLR 20/20 A3009 RMK AO2 T01950195
KAJR 141215Z AUTO 04003KT 5SM BR CLR 19/19 A3009 RMK AO2 T01860186
KAJR 141155Z AUTO 36003KT 7SM CLR 18/18 A3009 RMK AO2 T01790179 10190 20168
KAJR 141135Z AUTO 00000KT 5SM BR CLR 17/17 A3008 RMK AO2 T01710171
KAJR 141115Z AUTO 00000KT 7SM CLR 17/17 A3007 RMK AO2 T01740174
KAJR 141100Z AUTO 04003KT 7SM CLR 17/17 A3007 RMK AO2 T01700170
KAJR 141035Z AUTO 00000KT 7SM CLR 17/17 A3006 RMK AO2 T01690169
KAJR 141015Z AUTO 00000KT 7SM CLR 17/17 A3006 RMK AO2 T01710171
KAJR 140955Z AUTO 00000KT 7SM CLR 18/18 A3005 RMK AO2 T01750175
KAJR 140935Z AUTO 00000KT 7SM CLR 17/17 A3004 RMK AO2 T01730173
KAJR 140915Z AUTO 07003KT 7SM CLR 18/18 A3004 RMK AO2 T01770177
KAJR 140855Z AUTO 07005KT 10SM CLR 18/18 A3004 RMK AO2 T01770177
KAJR 140835Z AUTO 08004KT 7SM CLR 18/18 A3004 RMK AO2 T01790179
KAJR 140815Z AUTO 06003KT 10SM CLR 18/18 A3004 RMK AO2 T01770177
KAJR 140755Z AUTO 00000KT 10SM CLR 18/18 A3005 RMK AO2 T01770177
KAJR 140735Z AUTO 00000KT 7SM CLR 18/18 A3005 RMK AO2 T01800180
KAJR 140715Z AUTO 00000KT 7SM CLR 18/18 A3005 RMK AO2 T01840184
KAJR 140655Z AUTO 00000KT 7SM CLR 18/18 A3005 RMK AO2 T01800180
KAJR 140635Z AUTO 00000KT 7SM CLR 18/18 A3005 RMK AO2 T01830183
KAJR 140615Z AUTO 00000KT 7SM CLR 19/19 A3005 RMK AO2 T01890189
KAJR 140555Z AUTO 03003KT 7SM CLR 19/19 A3006 RMK AO2 T01880188 10256 20188 402910175
KAJR 140535Z AUTO 03003KT 7SM CLR 19/19 A3006 RMK AO2 T01930193
KAJR 140515Z AUTO 02003KT 7SM CLR 20/20 A3007 RMK AO2 T01990199
KAJR 140455Z AUTO 00000KT 10SM CLR 20/20 A3007 RMK AO2 T02030203
KAJR 140435Z AUTO 00000KT 10SM CLR 21/21 A3007 RMK AO2 T02050205
KAJR 140415Z AUTO 33003KT 7SM CLR 20/20 A3007 RMK AO2 T02000200
KAJR 140355Z AUTO 00000KT 10SM CLR 20/20 A3008 RMK AO2 T02030203
KAJR 140335Z AUTO 00000KT 7SM CLR 20/20 A3007 RMK AO2 T02030203
KAJR 140315Z AUTO 00000KT 10SM CLR 21/21 A3007 RMK AO2 T02120212
KAJR 140255Z AUTO 00000KT 10SM CLR 22/22 A3007 RMK AO2 T02160215
KAJR 140235Z AUTO 00000KT 10SM CLR 22/22 A3007 RMK AO2 T02180217
KAJR 140215Z AUTO 00000KT 7SM CLR 22/22 A3007 RMK AO2 T02160216
KAJR 140155Z AUTO 00000KT 7SM CLR 22/22 A3007 RMK AO2 T02150215
KAJR 140135Z AUTO 00000KT 10SM CLR 23/23 A3006 RMK AO2 T02250225
KAJR 140115Z AUTO 00000KT 10SM CLR 23/23 A3005 RMK AO2 T02320232
KAJR 140055Z AUTO 00000KT 10SM CLR 23/23 A3004 RMK AO2 T02340232
KAJR 140035Z AUTO 00000KT 7SM CLR 25/23 A3004 RMK AO2 T02500232
KAJR 140015Z AUTO 00000KT 10SM CLR 25/24 A3003 RMK AO2 T02510236
KAJR 132355Z AUTO 00000KT 10SM CLR 26/24 A3001 RMK AO2 T02560235 10291 20256
KAJR 132335Z AUTO 00000KT 7SM CLR 26/24 A3001 RMK AO2 T02620236
KAJR 132315Z AUTO 25004KT 10SM CLR 27/24 A3001 RMK AO2 T02730235
KAJR 132255Z AUTO 24004KT 10SM CLR 28/23 A3001 RMK AO2 T02800231
KAJR 132235Z AUTO 24003KT 7SM SCT070 28/23 A3001 RMK AO2 T02820233
KAJR 132215Z AUTO 23005KT 10SM SCT080 28/23 A3001 RMK AO2 T02820228
KAJR 132155Z AUTO 25005KT 5SM HZ SCT080 29/22 A3001 RMK AO2 T02890221
KAJR 132135Z AUTO 28005KT 7SM SCT080 29/22 A3002 RMK AO2 T02860223
KAJR 132115Z AUTO 26006KT 7SM CLR 29/22 A3003 RMK AO2 T02890221
KAJR 132055Z AUTO 24005KT 10SM SCT048 29/22 A3004 RMK AO2 T02890221
KAJR 132035Z AUTO 23005KT 7SM SCT044 28/22 A3004 RMK AO2 T02820222
KAJR 132015Z AUTO 21004KT 7SM SCT044 29/22 A3005 RMK AO2 T02860219
KAJR 131955Z AUTO 20003KT 10SM SCT050 29/22 A3005 RMK AO2 T02880221
KAJR 131935Z AUTO 22004KT 10SM SCT050 29/21 A3006 RMK AO2 T02870211
KAJR 131915Z AUTO 00000KT 10SM SCT048 28/21 A3007 RMK AO2 T02830213
KAJR 131855Z AUTO 23004KT 10SM CLR 29/22 A3007 RMK AO2 T02900215
KAJR 131835Z AUTO 27003KT 10SM CLR 29/22 A3007 RMK AO2 T02850217
KAJR 131815Z AUTO 00000KT 7SM CLR 28/22 A3008 RMK AO2 T02790221
KAJR 131755Z AUTO 24003KT 10SM SCT035 28/21 A3008 RMK AO2 T02780213 10278 20186
KAJR 131735Z AUTO 20003KT 7SM BKN035 27/23 A3009 RMK AO2 T02650230
KAJR 131715Z AUTO 17003KT 7SM CLR 27/23 A3009 RMK AO2 T02740231
KAJR 131655Z AUTO 00000KT 7SM SCT029 27/22 A3009 RMK AO2 T02700216
KAJR 131635Z AUTO 25004KT 7SM SCT029 SCT037 27/23 A3010 RMK AO2 T02650228
KAJR 131615Z AUTO 30003KT 10SM SCT029 SCT037 27/22 A3010 RMK AO2 T02670219
KAJR 131555Z AUTO 00000KT 7SM SCT030 26/23 A3010 RMK AO2 T02610229
KAJR 131535Z AUTO 00000KT 7SM SCT024 BKN030 26/23 A3011 RMK AO2 T02570227
KAJR 131515Z AUTO 15003KT 7SM SCT022 26/24 A3011 RMK AO2 T02600236
KAJR 131455Z AUTO 00000KT 10SM CLR 25/23 A3011 RMK AO2 T02500231
KAJR 131435Z AUTO 00000KT 10SM CLR 25/23 A3011 RMK AO2 T02490232
KAJR 131415Z AUTO 00000KT 10SM CLR 25/23 A3010 RMK AO2 T02450229
KAJR 131355Z AUTO 00000KT 10SM CLR 24/23 A3010 RMK AO2 T02390226
KAJR 131335Z AUTO 00000KT 10SM CLR 23/22 A3010 RMK AO2 T02280221
KAJR 131315Z AUTO 00000KT 10SM CLR 22/22 A3010 RMK AO2 T02210217
KAJR 131255Z AUTO 00000KT 10SM CLR 21/21 A3010 RMK AO2 T02110211
KAJR 131235Z AUTO 00000KT 10SM CLR 20/20 A3010 RMK AO2 T02010201
KAJR 131215Z AUTO 07003KT 7SM CLR 19/19 A3010 RMK AO2 T01920192
KAJR 131155Z AUTO 05005KT 7SM CLR 19/19 A3009 RMK AO2 T01850185 10205 20175
KAJR 131135Z AUTO 05003KT 5SM BR CLR 18/18 A3009 RMK AO2 T01770177
KAJR 131115Z AUTO 00000KT 7SM CLR 18/18 A3009 RMK AO2 T01770177
KAJR 131055Z AUTO 06003KT 7SM CLR 18/18 A3008 RMK AO2 T01760176
KAJR 131035Z AUTO 00000KT 7SM CLR 18/18 A3008 RMK AO2 T01750175
KAJR 131015Z AUTO 00000KT 5SM BR CLR 18/18 A3008 RMK AO2 T01790179
KAJR 130955Z AUTO 00000KT 7SM CLR 18/18 A3007 RMK AO2 T01800180
KAJR 130935Z AUTO 00000KT 7SM CLR 18/18 A3007 RMK AO2 T01820182
KAJR 130915Z AUTO 00000KT 10SM CLR 19/19 A3007 RMK AO2 T01940194
KAJR 130855Z AUTO 09003KT 7SM CLR 19/19 A3007 RMK AO2 T01850185
KAJR 130835Z AUTO 00000KT 10SM CLR 19/19 A3007 RMK AO2 T01870187
KAJR 130815Z AUTO 00000KT 7SM CLR 19/19 A3007 RMK AO2 T01900190
KAJR 130755Z AUTO 00000KT 7SM CLR 19/19 A3007 RMK AO2 T01860186